New Rooks County (RCP)
Stockton, KS
Field Elevation: 1999
Lat: 39°20.80N  Long: 99°18.28W
CTAF/Unicom Freq: 122.9000
   
    
Weather Advisories
7/29/2014 20:46 Z
Altimeter 30.11" Hg
Wind 140° @ 8 KT
Gusts --
Visibility 3/4 SM
Temperature 31° C (88° F)
Dewpoint 13° C (55° F)
Relative Humidity 34%
Density Altitude 4,000 feet
Condensation Altitude 10,900 feet
Heat Index 30° C (86° F)
  Wind and Runways
Indicated Runway = 18
History
 
 
More Info
All DigiWx sites map
NOAA Forecast
 
Airport IQ 5010
(FLV) Sherman Airfield
(K68) Garnett Municipal Airport
 
about DigiWx
 
FAA Disclaimer: The data displayed is for advisory purposes only and is not to be used for flight planning or operations. For official data, please call (not available) to hear the current automated AWOS voice message.
  METAR RCP 292046Z AUTO 14008KT 3/4SM 31/13 A3011